Bakersfield, California
Current Conditions -  °F | °C
As of 12:54 PM on Friday 31 Oct 2014 (Local Time) from KBFL Reporting Station
Clear Clear  
Wind Chill: 22°   Ceiling: Unl
Heat Index: 22°   Visibility: 10mi
Dew Point: 10°   Wind: 8mph
Humidity: 46%   Direction: 330°NNW
Pressure: 29.85"   Gusts: NA
Location:  35.37°N, 119.01°W
Report Text: KBFL 311954Z 33007KT 10SM CLR 22/10 A2985 RMK AO2 SLP102 T02220100
Loading
Personal Weather Stations






























Interactive Weather Map
Tropical Storm Tracking
New forecast layout! Learn more

10-Day Weather Forecast

Advertisements
Track Severe Weather on mobile